createdAt,value
2018-11-14T00:00:22.660Z,9.88
2018-11-14T00:02:51.630Z,9.81
2018-11-14T00:05:20.083Z,9.78
2018-11-14T00:07:48.511Z,9.78
2018-11-14T00:10:17.671Z,9.78
2018-11-14T00:12:45.615Z,9.86
2018-11-14T00:15:15.407Z,9.85
2018-11-14T00:17:45.005Z,9.82
2018-11-14T00:20:13.908Z,9.91
2018-11-14T00:22:43.378Z,10.02
2018-11-14T00:25:11.859Z,10.07
2018-11-14T00:27:40.308Z,10.10
2018-11-14T00:30:18.435Z,10.11
2018-11-14T00:32:46.970Z,10.11
2018-11-14T00:35:15.532Z,10.10
2018-11-14T00:37:44.418Z,10.12
2018-11-14T00:40:13.793Z,10.17
2018-11-14T00:42:42.815Z,10.14
2018-11-14T00:45:13.322Z,10.20
2018-11-14T00:47:42.756Z,10.20
2018-11-14T00:50:12.427Z,10.13
2018-11-14T00:52:41.458Z,10.17
2018-11-14T00:55:13.780Z,10.18
2018-11-14T00:57:43.151Z,10.16
2018-11-14T01:00:14.532Z,10.17
2018-11-14T01:02:43.463Z,10.16
2018-11-14T01:05:12.858Z,10.12
2018-11-14T01:07:41.860Z,10.13
2018-11-14T01:10:11.990Z,10.03
2018-11-14T01:12:40.641Z,10.08
2018-11-14T01:15:11.486Z,10.03
2018-11-14T01:17:40.262Z,10.09
2018-11-14T01:20:12.050Z,10.04
2018-11-14T01:22:41.094Z,10.04
2018-11-14T01:25:11.016Z,9.99
2018-11-14T01:27:39.425Z,9.97
2018-11-14T01:30:14.699Z,9.94
2018-11-14T01:32:43.854Z,9.89
2018-11-14T01:35:12.310Z,9.83
2018-11-14T01:37:40.778Z,9.84
2018-11-14T01:40:17.743Z,9.83
2018-11-14T01:42:48.068Z,9.75
2018-11-14T01:45:16.503Z,9.86
2018-11-14T01:47:45.050Z,9.95
2018-11-14T01:50:13.482Z,9.83
2018-11-14T01:52:41.966Z,9.78
2018-11-14T01:55:13.460Z,9.91
2018-11-14T01:57:41.971Z,9.95
2018-11-14T02:00:13.951Z,9.92
2018-11-14T02:02:42.474Z,9.89
2018-11-14T02:05:11.486Z,9.87
2018-11-14T02:07:40.429Z,9.77
2018-11-14T02:10:10.482Z,9.82
2018-11-14T02:12:39.720Z,9.82
2018-11-14T02:15:11.338Z,9.87
2018-11-14T02:17:39.935Z,9.89
2018-11-14T02:20:08.854Z,9.87
2018-11-14T02:22:37.296Z,9.84
2018-11-14T02:25:06.262Z,9.84
2018-11-14T02:27:34.667Z,9.76
2018-11-14T02:30:06.175Z,9.79
2018-11-14T02:32:34.570Z,9.71
2018-11-14T02:35:06.100Z,9.76
2018-11-14T02:37:34.567Z,9.84
2018-11-14T02:40:04.841Z,9.82
2018-11-14T02:42:33.247Z,9.79
2018-11-14T02:45:04.175Z,9.75
2018-11-14T02:47:32.595Z,9.72
2018-11-14T02:50:04.282Z,9.79
2018-11-14T02:52:32.742Z,9.71
2018-11-14T02:55:03.491Z,9.74
2018-11-14T02:57:32.234Z,9.67
2018-11-14T03:00:00.649Z,9.71
2018-11-14T03:02:29.089Z,9.70
2018-11-14T03:04:57.495Z,9.75
2018-11-14T03:07:25.926Z,9.74
2018-11-14T03:09:54.373Z,9.76
2018-11-14T03:12:22.881Z,9.70
2018-11-14T03:14:51.259Z,9.73
2018-11-14T03:17:19.738Z,9.74
2018-11-14T03:19:48.151Z,9.76
2018-11-14T03:22:16.595Z,9.83
2018-11-14T03:24:45.014Z,9.81
2018-11-14T03:27:13.470Z,9.81
2018-11-14T03:29:41.884Z,9.75
2018-11-14T03:32:10.384Z,9.76
2018-11-14T03:34:38.813Z,9.73
2018-11-14T03:37:07.297Z,9.75
2018-11-14T03:39:35.695Z,9.70
2018-11-14T03:42:05.146Z,9.69
2018-11-14T03:44:33.586Z,9.65
2018-11-14T03:47:04.628Z,9.64
2018-11-14T03:49:33.056Z,9.66
2018-11-14T03:52:03.682Z,9.76
2018-11-14T03:54:32.098Z,9.71
2018-11-14T03:57:00.814Z,9.71
2018-11-14T03:59:29.272Z,9.75
2018-11-14T04:01:57.695Z,9.74
2018-11-14T04:04:26.154Z,9.76
2018-11-14T04:06:54.576Z,9.67
2018-11-14T04:09:23.124Z,9.70
2018-11-14T04:11:51.573Z,9.68
2018-11-14T04:14:20.048Z,9.74
2018-11-14T04:16:48.459Z,9.69
2018-11-14T04:19:16.927Z,9.69
2018-11-14T04:21:45.346Z,9.59
2018-11-14T04:24:13.763Z,9.59
2018-11-14T04:26:42.243Z,9.58
2018-11-14T04:29:10.739Z,9.59
2018-11-14T04:31:39.183Z,9.59
2018-11-14T04:34:07.584Z,9.54
2018-11-14T04:36:36.072Z,9.57
2018-11-14T04:39:08.950Z,9.57
2018-11-14T04:41:37.470Z,9.50
2018-11-14T04:44:08.346Z,9.38
2018-11-14T04:46:36.831Z,9.45
2018-11-14T04:49:06.025Z,9.47
2018-11-14T04:51:34.471Z,9.52
2018-11-14T04:54:05.466Z,9.53
2018-11-14T04:56:33.874Z,9.50
2018-11-14T04:59:04.625Z,9.52
2018-11-14T05:01:33.071Z,9.58
2018-11-14T05:04:03.572Z,9.59
2018-11-14T05:06:31.996Z,9.57
2018-11-14T05:09:00.806Z,9.62
2018-11-14T05:11:29.214Z,9.61
2018-11-14T05:13:57.681Z,9.59
2018-11-14T05:16:26.102Z,9.53
2018-11-14T05:18:54.540Z,9.61
2018-11-14T05:21:22.939Z,9.64
2018-11-14T05:23:51.345Z,9.63
2018-11-14T05:26:19.794Z,9.61
2018-11-14T05:28:48.206Z,9.60
2018-11-14T05:31:16.643Z,9.57
2018-11-14T05:33:45.043Z,9.54
2018-11-14T05:36:13.500Z,9.46
2018-11-14T05:38:41.882Z,9.43
2018-11-14T05:41:10.360Z,9.40
2018-11-14T05:43:38.774Z,9.44
2018-11-14T05:46:07.196Z,9.44
2018-11-14T05:48:35.648Z,9.40
2018-11-14T05:51:06.769Z,9.20
2018-11-14T05:53:35.240Z,9.04
2018-11-14T05:56:05.580Z,8.94
2018-11-14T05:58:34.050Z,8.89
2018-11-14T06:01:04.842Z,8.91
2018-11-14T06:03:33.350Z,8.87
2018-11-14T06:06:03.646Z,9.02
2018-11-14T06:08:32.126Z,9.16
2018-11-14T06:11:00.576Z,9.20
2018-11-14T06:13:29.049Z,9.25
2018-11-14T06:15:57.478Z,9.22
2018-11-14T06:18:25.952Z,9.04
2018-11-14T06:20:54.371Z,9.09
2018-11-14T06:23:22.845Z,9.02
2018-11-14T06:25:51.256Z,8.96
2018-11-14T06:28:19.666Z,9.01
2018-11-14T06:30:48.118Z,9.13
2018-11-14T06:33:16.543Z,9.14
2018-11-14T06:35:45.015Z,9.21
2018-11-14T06:38:13.442Z,9.29
2018-11-14T06:40:41.872Z,9.35
2018-11-14T06:43:10.303Z,9.47
2018-11-14T06:45:38.754Z,9.47
2018-11-14T06:48:07.268Z,9.45
2018-11-14T06:50:35.699Z,9.45
2018-11-14T06:53:06.990Z,9.41
2018-11-14T06:55:35.411Z,9.40
2018-11-14T06:58:05.143Z,9.32
2018-11-14T07:00:34.666Z,9.32
2018-11-14T07:03:06.564Z,9.28
2018-11-14T07:05:35.168Z,9.27
2018-11-14T07:08:06.770Z,9.24
2018-11-14T07:10:36.372Z,9.29
2018-11-14T07:13:06.728Z,9.33
2018-11-14T07:15:35.680Z,9.31
2018-11-14T07:18:06.153Z,9.28
2018-11-14T07:20:35.926Z,9.41
2018-11-14T07:23:06.093Z,9.45
2018-11-14T07:25:34.531Z,9.47
2018-11-14T07:28:06.116Z,9.49
2018-11-14T07:30:35.303Z,9.53
2018-11-14T07:33:09.290Z,9.53
2018-11-14T07:35:37.722Z,9.56
2018-11-14T07:38:41.618Z,9.51
2018-11-14T07:41:11.718Z,9.47
2018-11-14T07:43:40.799Z,9.46
2018-11-14T07:46:09.790Z,9.48
2018-11-14T07:48:38.793Z,9.39
2018-11-14T07:51:07.582Z,9.47
2018-11-14T07:53:36.043Z,9.58
2018-11-14T07:56:07.714Z,9.57
2018-11-14T07:58:36.205Z,9.55
2018-11-14T08:01:07.033Z,9.60
2018-11-14T08:03:35.478Z,9.66
2018-11-14T08:06:05.251Z,9.67
2018-11-14T08:08:33.789Z,9.72
2018-11-14T08:11:05.299Z,9.80
2018-11-14T08:13:34.843Z,9.84
2018-11-14T08:16:05.560Z,9.85
2018-11-14T08:18:33.992Z,9.87
2018-11-14T08:21:05.738Z,9.83
2018-11-14T08:23:34.172Z,9.79
2018-11-14T08:26:05.602Z,9.78
2018-11-14T08:28:34.122Z,9.77
2018-11-14T08:31:06.255Z,9.79
2018-11-14T08:33:34.674Z,9.84
2018-11-14T08:36:06.271Z,9.86
2018-11-14T08:38:34.686Z,9.99
2018-11-14T08:41:07.531Z,10.04
2018-11-14T08:43:35.951Z,10.06
2018-11-14T08:46:05.703Z,10.04
2018-11-14T08:48:34.117Z,10.08
2018-11-14T08:51:05.128Z,10.14
2018-11-14T08:53:33.547Z,10.12
2018-11-14T08:56:04.610Z,10.16
2018-11-14T08:58:33.012Z,10.12
2018-11-14T09:01:04.410Z,10.14
2018-11-14T09:03:32.846Z,10.03
2018-11-14T09:06:05.800Z,10.04
2018-11-14T09:08:34.254Z,9.94
2018-11-14T09:11:06.949Z,9.93
2018-11-14T09:13:35.310Z,9.88
2018-11-14T09:16:06.192Z,9.85
2018-11-14T09:18:34.610Z,9.96
2018-11-14T09:21:06.195Z,10.03
2018-11-14T09:23:34.638Z,10.18
2018-11-14T09:26:05.572Z,10.33
2018-11-14T09:28:33.966Z,10.32
2018-11-14T09:31:04.782Z,10.28
2018-11-14T09:33:33.219Z,10.28
2018-11-14T09:36:03.644Z,10.33
2018-11-14T09:38:32.038Z,10.36
2018-11-14T09:41:00.513Z,10.30
2018-11-14T09:43:28.922Z,10.32
2018-11-14T09:45:57.330Z,10.39
2018-11-14T09:48:25.764Z,10.47
2018-11-14T09:50:54.204Z,10.51
2018-11-14T09:53:22.672Z,10.59
2018-11-14T09:55:51.075Z,10.89
2018-11-14T09:58:19.482Z,10.96
2018-11-14T10:00:47.988Z,10.84
2018-11-14T10:03:17.710Z,10.64
2018-11-14T10:05:46.147Z,10.66
2018-11-14T10:08:14.683Z,10.78
2018-11-14T10:10:43.268Z,10.90
2018-11-14T10:13:11.698Z,11.00
2018-11-14T10:15:40.183Z,11.12
2018-11-14T10:18:08.622Z,11.15
2018-11-14T10:20:37.035Z,11.12
2018-11-14T10:23:06.056Z,11.08
2018-11-14T10:25:34.484Z,11.10
2018-11-14T10:28:05.387Z,11.07
2018-11-14T10:30:33.803Z,11.05
2018-11-14T10:33:04.682Z,11.08
2018-11-14T10:35:33.084Z,11.10
2018-11-14T10:38:04.350Z,11.11
2018-11-14T10:40:32.750Z,11.12
2018-11-14T10:43:03.736Z,11.09
2018-11-14T10:45:32.164Z,11.04
2018-11-14T10:48:00.602Z,10.99
2018-11-14T10:50:29.055Z,10.93
2018-11-14T10:52:57.478Z,10.87
2018-11-14T10:55:25.917Z,10.85
2018-11-14T10:57:54.730Z,10.87
2018-11-14T11:00:29.388Z,10.85
2018-11-14T11:03:04.062Z,10.81
2018-11-14T11:05:37.806Z,10.82
2018-11-14T11:08:11.784Z,10.84
2018-11-14T11:10:45.458Z,10.86
2018-11-14T11:13:19.248Z,10.81
2018-11-14T11:15:52.931Z,10.87
2018-11-14T11:18:25.359Z,10.80
2018-11-14T11:20:53.965Z,10.80
2018-11-14T11:23:22.620Z,10.86
2018-11-14T11:25:51.007Z,10.86
2018-11-14T11:28:19.430Z,10.83
2018-11-14T11:30:48.040Z,10.83
2018-11-14T11:33:16.502Z,10.81
2018-11-14T11:35:44.954Z,10.82
2018-11-14T11:38:13.450Z,10.78
2018-11-14T11:40:42.544Z,10.84
2018-11-14T11:43:10.970Z,10.78
2018-11-14T11:45:39.419Z,10.72
2018-11-14T11:48:07.851Z,10.68
2018-11-14T11:50:36.299Z,10.63
2018-11-14T11:53:05.299Z,10.64
2018-11-14T11:55:33.794Z,10.61
2018-11-14T11:58:04.622Z,10.66
2018-11-14T12:00:33.249Z,10.67
2018-11-14T12:03:04.355Z,10.69
2018-11-14T12:05:32.810Z,10.74
2018-11-14T12:08:03.636Z,10.61
2018-11-14T12:10:32.091Z,10.59
2018-11-14T12:13:00.556Z,10.61
2018-11-14T12:15:28.986Z,10.64
2018-11-14T12:17:57.387Z,10.55
2018-11-14T12:20:26.319Z,10.51
2018-11-14T12:22:54.750Z,10.52
2018-11-14T12:25:23.170Z,10.58
2018-11-14T12:27:51.631Z,10.55
2018-11-14T12:30:20.066Z,10.58
2018-11-14T12:32:48.556Z,10.66
2018-11-14T12:35:17.448Z,10.66
2018-11-14T12:37:45.833Z,10.72
2018-11-14T12:40:15.633Z,10.70
2018-11-14T12:42:44.047Z,10.74
2018-11-14T12:45:13.827Z,10.79
2018-11-14T12:47:42.410Z,10.74
2018-11-14T12:50:11.842Z,10.71
2018-11-14T12:52:41.039Z,10.71
2018-11-14T12:55:11.955Z,10.67
2018-11-14T12:57:40.373Z,10.66
2018-11-14T13:00:10.889Z,10.68
2018-11-14T13:02:39.350Z,10.67
2018-11-14T13:05:08.982Z,10.61
2018-11-14T13:07:37.432Z,10.58
2018-11-14T13:10:07.483Z,10.59
2018-11-14T13:12:35.966Z,10.61
2018-11-14T13:15:05.202Z,10.69
2018-11-14T13:17:33.666Z,10.73
2018-11-14T13:20:04.548Z,10.75
2018-11-14T13:22:33.001Z,10.75
2018-11-14T13:25:04.382Z,10.80
2018-11-14T13:27:32.822Z,10.75
2018-11-14T13:30:04.372Z,10.76
2018-11-14T13:32:32.819Z,10.79
2018-11-14T13:35:03.744Z,10.82
2018-11-14T13:37:32.187Z,10.82
2018-11-14T13:40:00.594Z,10.81
2018-11-14T13:42:29.035Z,10.90
2018-11-14T13:44:57.440Z,10.88
2018-11-14T13:47:25.898Z,10.88
2018-11-14T13:49:54.528Z,10.85
2018-11-14T13:52:23.041Z,10.85
2018-11-14T13:54:58.050Z,10.82
2018-11-14T13:57:26.467Z,10.75
2018-11-14T13:59:54.882Z,10.75
2018-11-14T14:02:23.431Z,10.78
2018-11-14T14:04:51.914Z,10.79
2018-11-14T14:07:20.326Z,10.76
2018-11-14T14:09:48.843Z,10.77
2018-11-14T14:12:17.239Z,10.78
2018-11-14T14:14:45.710Z,10.80
2018-11-14T14:17:14.145Z,10.79
2018-11-14T14:22:27.155Z,10.75
2018-11-14T14:24:55.676Z,10.75
2018-11-14T14:27:24.215Z,10.73
2018-11-14T14:29:52.992Z,10.73
2018-11-14T14:32:21.491Z,10.73
2018-11-14T14:34:50.029Z,10.73
2018-11-14T14:37:18.567Z,10.71
2018-11-14T14:39:47.199Z,10.73
2018-11-14T14:42:15.709Z,10.74
2018-11-14T14:44:44.256Z,10.75
2018-11-14T14:47:12.743Z,10.76
2018-11-14T14:49:41.291Z,10.78
2018-11-14T14:52:09.856Z,10.76
2018-11-14T14:54:38.452Z,10.78
2018-11-14T14:57:07.095Z,10.83
2018-11-14T14:59:35.605Z,10.74
2018-11-14T15:02:05.938Z,10.69
2018-11-14T15:04:34.439Z,10.58
2018-11-14T15:07:06.467Z,10.44
2018-11-14T15:09:35.017Z,10.31
2018-11-14T15:12:12.938Z,10.31
2018-11-14T15:14:45.797Z,10.31
2018-11-14T15:17:14.381Z,10.17
2018-11-14T15:19:42.862Z,10.01
2018-11-14T15:22:11.416Z,9.86
2018-11-14T15:24:42.726Z,9.84
2018-11-14T15:27:14.195Z,9.90
2018-11-14T15:29:42.599Z,9.89
2018-11-14T15:32:11.120Z,10.02
2018-11-14T15:34:39.629Z,10.17
2018-11-14T15:37:08.125Z,10.26
2018-11-14T15:39:39.382Z,10.12
2018-11-14T15:42:07.964Z,9.99
2018-11-14T15:44:36.549Z,9.83
2018-11-14T15:47:05.195Z,9.74
2018-11-14T15:49:33.652Z,9.64
2018-11-14T15:52:04.635Z,9.71
2018-11-14T15:54:33.108Z,9.74
2018-11-14T15:57:03.761Z,9.74
2018-11-14T15:59:32.319Z,9.85
2018-11-14T16:02:00.900Z,9.89
2018-11-14T16:04:29.443Z,9.92
2018-11-14T16:06:58.081Z,10.03
2018-11-14T16:09:26.626Z,10.04
2018-11-14T16:11:55.164Z,9.99
2018-11-14T16:14:23.686Z,9.88
2018-11-14T16:16:52.288Z,9.68
2018-11-14T16:19:21.190Z,9.62
2018-11-14T16:21:49.711Z,9.70
2018-11-14T16:24:18.246Z,9.65
2018-11-14T16:26:46.798Z,9.64
2018-11-14T16:29:15.341Z,9.67
2018-11-14T16:31:44.248Z,9.77
2018-11-14T16:34:12.692Z,9.65
2018-11-14T16:36:41.178Z,9.64
2018-11-14T16:39:11.454Z,9.60
2018-11-14T16:41:39.929Z,9.60
2018-11-14T16:44:09.616Z,9.51
2018-11-14T16:46:44.910Z,9.29
2018-11-14T16:49:13.423Z,9.17
2018-11-14T16:51:41.914Z,9.16
2018-11-14T16:54:10.768Z,9.32
2018-11-14T16:56:39.328Z,9.22
2018-11-14T16:59:08.082Z,9.21
2018-11-14T17:01:36.736Z,9.22
2018-11-14T17:04:07.039Z,9.12
2018-11-14T17:06:35.580Z,8.97
2018-11-14T17:09:08.907Z,8.82
2018-11-14T17:11:37.457Z,8.73
2018-11-14T17:14:11.342Z,8.80
2018-11-14T17:16:40.810Z,8.75
2018-11-14T17:19:18.192Z,8.80
2018-11-14T17:21:46.669Z,8.76
2018-11-14T17:24:15.171Z,8.75
2018-11-14T17:26:43.715Z,8.94
2018-11-14T17:29:12.244Z,9.01
2018-11-14T17:31:40.735Z,9.20
2018-11-14T17:34:12.335Z,9.29
2018-11-14T17:36:40.841Z,9.41
2018-11-14T17:39:11.377Z,9.52
2018-11-14T17:41:40.045Z,9.56
2018-11-14T17:44:08.519Z,9.56
2018-11-14T17:46:37.523Z,9.58
2018-11-14T17:49:06.700Z,9.62
2018-11-14T17:51:36.175Z,9.48
2018-11-14T17:54:05.870Z,9.38
2018-11-14T17:56:34.992Z,9.43
2018-11-14T17:59:05.878Z,9.43
2018-11-14T18:01:35.070Z,9.44
2018-11-14T18:04:05.473Z,9.51
2018-11-14T18:06:34.392Z,9.58
2018-11-14T18:09:08.723Z,9.38
2018-11-14T18:11:37.957Z,9.28
2018-11-14T18:14:06.858Z,9.24
2018-11-14T18:16:36.011Z,9.24
2018-11-14T18:19:07.065Z,9.11
2018-11-14T18:21:35.974Z,9.05
2018-11-14T18:24:05.890Z,8.94
2018-11-14T18:26:34.959Z,9.00
2018-11-14T18:29:08.302Z,9.20
2018-11-14T18:31:38.068Z,9.31
2018-11-14T18:34:07.523Z,9.37
2018-11-14T18:36:36.591Z,9.33
2018-11-14T18:39:12.851Z,9.10
2018-11-14T18:41:41.981Z,9.06
2018-11-14T18:44:10.879Z,8.95
2018-11-14T18:46:39.808Z,8.82
2018-11-14T18:49:09.138Z,8.81
2018-11-14T18:51:38.671Z,8.77
2018-11-14T18:54:07.905Z,8.70
2018-11-14T18:56:37.177Z,8.81
2018-11-14T18:59:09.060Z,9.00
2018-11-14T19:01:38.103Z,9.17
2018-11-14T19:04:06.926Z,9.30
2018-11-14T19:06:36.393Z,9.37
2018-11-14T19:09:09.116Z,9.41
2018-11-14T19:11:38.815Z,9.48
2018-11-14T19:14:07.905Z,9.59
2018-11-14T19:16:37.564Z,9.57
2018-11-14T19:19:12.859Z,9.55
2018-11-14T19:21:41.712Z,9.51
2018-11-14T19:24:10.477Z,9.40
2018-11-14T19:26:39.311Z,9.39
2018-11-14T19:29:08.870Z,9.32
2018-11-14T19:31:38.035Z,9.31
2018-11-14T19:34:06.876Z,9.33
2018-11-14T19:36:35.575Z,9.40
2018-11-14T19:39:09.222Z,9.43
2018-11-14T19:41:38.153Z,9.54
2018-11-14T19:44:07.012Z,9.59
2018-11-14T19:46:35.950Z,9.59
2018-11-14T19:49:06.688Z,9.57
2018-11-14T19:51:36.253Z,9.61
2018-11-14T19:54:08.848Z,9.60
2018-11-14T19:56:37.588Z,9.60
2018-11-14T19:59:06.336Z,9.61
2018-11-14T20:01:35.212Z,9.63
2018-11-14T20:04:08.015Z,9.63
2018-11-14T20:06:39.043Z,9.69
2018-11-14T20:09:11.077Z,9.66
2018-11-14T20:11:39.949Z,9.69
2018-11-14T20:14:08.872Z,9.62
2018-11-14T20:16:37.879Z,9.51
2018-11-14T20:19:07.166Z,9.55
2018-11-14T20:21:36.041Z,9.66
2018-11-14T20:24:06.219Z,9.60
2018-11-14T20:26:35.453Z,9.59
2018-11-14T20:29:06.402Z,9.62
2018-11-14T20:31:36.075Z,9.65
2018-11-14T20:34:06.793Z,9.65
2018-11-14T20:36:35.822Z,9.59
2018-11-14T20:39:09.931Z,9.61
2018-11-14T20:41:38.861Z,9.66
2018-11-14T20:44:07.722Z,9.65
2018-11-14T20:46:43.383Z,9.66
2018-11-14T20:49:12.291Z,9.67
2018-11-14T20:51:41.325Z,9.71
2018-11-14T20:54:10.203Z,9.74
2018-11-14T20:56:38.623Z,9.76
2018-11-14T20:59:08.760Z,9.64
2018-11-14T21:01:37.282Z,9.48
2018-11-14T21:04:05.939Z,9.54
2018-11-14T21:06:34.369Z,9.50
2018-11-14T21:09:06.437Z,9.34
2018-11-14T21:11:34.939Z,9.28
2018-11-14T21:14:05.203Z,9.18
2018-11-14T21:16:34.020Z,9.32
2018-11-14T21:19:03.769Z,9.42
2018-11-14T21:21:32.258Z,9.53
2018-11-14T21:24:01.101Z,9.63
2018-11-14T21:26:29.862Z,9.64
2018-11-14T21:28:58.534Z,9.64
2018-11-14T21:31:27.451Z,9.56
2018-11-14T21:33:55.878Z,9.65
2018-11-14T21:36:24.343Z,9.66
2018-11-14T21:38:52.790Z,9.77
2018-11-14T21:41:21.226Z,9.76
2018-11-14T21:43:49.711Z,9.79
2018-11-14T21:46:18.201Z,9.70
2018-11-14T21:48:46.666Z,9.64
2018-11-14T21:51:15.114Z,9.64
2018-11-14T21:53:43.576Z,9.68
2018-11-14T21:56:11.995Z,9.69
2018-11-14T21:58:40.403Z,9.76
2018-11-14T22:01:08.871Z,9.70
2018-11-14T22:03:37.295Z,9.75
2018-11-14T22:06:06.998Z,9.75
2018-11-14T22:08:35.492Z,9.84
2018-11-14T22:11:05.211Z,9.83
2018-11-14T22:13:33.662Z,9.76
2018-11-14T22:16:05.086Z,9.66
2018-11-14T22:18:33.489Z,9.49
2018-11-14T22:21:03.460Z,9.11
2018-11-14T22:23:32.430Z,8.97
2018-11-14T22:26:04.986Z,8.92
2018-11-14T22:28:33.434Z,8.79
2018-11-14T22:31:08.614Z,8.68
2018-11-14T22:33:37.078Z,8.62
2018-11-14T22:36:05.842Z,8.65
2018-11-14T22:38:34.668Z,8.94
2018-11-14T22:41:05.184Z,8.93
2018-11-14T22:43:33.582Z,8.83
2018-11-14T22:46:05.182Z,8.81
2018-11-14T22:48:33.638Z,8.69
2018-11-14T22:51:05.274Z,8.76
2018-11-14T22:53:33.670Z,8.82
2018-11-14T22:56:04.654Z,9.07
2018-11-14T22:58:33.112Z,9.15
2018-11-14T23:01:05.198Z,9.17
2018-11-14T23:03:33.638Z,9.28
2018-11-14T23:06:04.816Z,9.36
2018-11-14T23:08:33.277Z,9.42
2018-11-14T23:11:04.520Z,9.37
2018-11-14T23:13:32.940Z,9.37
2018-11-14T23:16:04.514Z,9.48
2018-11-14T23:18:32.933Z,9.43
2018-11-14T23:21:03.611Z,9.48
2018-11-14T23:23:32.636Z,9.50
2018-11-14T23:26:03.764Z,9.51
2018-11-14T23:28:32.259Z,9.50
2018-11-14T23:31:00.743Z,9.50
2018-11-14T23:33:29.148Z,9.55
2018-11-14T23:35:57.587Z,9.55
2018-11-14T23:38:26.059Z,9.59
2018-11-14T23:40:54.475Z,9.58
2018-11-14T23:43:22.969Z,9.59
2018-11-14T23:45:51.390Z,9.62
2018-11-14T23:48:19.859Z,9.54
2018-11-14T23:50:48.308Z,9.50
2018-11-14T23:53:16.791Z,9.36
2018-11-14T23:55:45.203Z,9.37
2018-11-14T23:58:13.631Z,9.47
